Reeds Cross Roads, North Carolina
Current Conditions -  °F | °C
As of 5:55 PM on Tuesday 27 Jan 2015 (Local Time) from KEXX Reporting Station
Clear Clear  
Wind Chill: 40°   Ceiling: Unl
Heat Index: 40°   Visibility: 10mi
Dew Point:   Wind: 0mph
Humidity: 26%   Direction: NA
Pressure: 29.88"   Gusts: NA
Location:  35.7974°N, 80.2541°W
Report Text: KEXX 272255Z AUTO 00000KT 10SM CLR 04/M14 A2988 RMK AO2 T00421137
Loading
Personal Weather Stations






























Interactive Weather Map New forecast layout! Learn more

10-Day Weather Forecast

Advertisements
Track Severe Weather on mobile